CheckWX is a tool to help pilots better visualize weather data.  It is not intended as a substitute for an official pre-flight weather briefing.

17:09:03 UTC

CYXJ TAF
Fort St John Airport
Fort St.John, Canada
TAF CYXJ 241242Z 2413/2501 36010KT 6SM FU SCT080 TEMPO 2413/2419 3SM FU BKN080 FM241900 36010KT P6SM SCT080 TEMPO 2422/2501 P6SM -SHRA BKN080 RMK NXT FCST BY 241900Z

May-24@
13:00 UTC

May-24 @ 13:00 UTC

May-24@
19:00 UTC

May-24 @ 19:00 UTC

TAF CYXJ 241242Z 2413/2501 36010KT 6SM FU SCT080
Wind
  • 360° at 10 KTS
Conditions
Smoke
Cloud Levels
  • Scattered at 8,000' AGL

May-24@
13:00 UTC

May-24 @ 13:00 UTC

May-24@
19:00 UTC

May-24 @ 19:00 UTC

TEMPO 2413/2419 3SM FU BKN080

Temporary

Temporary Changes expected for less than half the time period

Conditions
Smoke
Cloud Levels
  • Broken at 8,000' AGL

May-24@
19:00 UTC

May-24 @ 19:00 UTC

May-25@
01:00 UTC

May-25 @ 01:00 UTC

FM241900 36010KT P6SM SCT080

From

From Standard forecast or significant change

Wind
  • 360° at 10 KTS
Cloud Levels
  • Scattered at 8,000' AGL

May-24@
22:00 UTC

May-24 @ 22:00 UTC

May-25@
01:00 UTC

May-25 @ 01:00 UTC

TEMPO 2422/2501 P6SM -SHRA BKN080 RMK NXT FCST BY 241900Z

Temporary

Temporary Changes expected for less than half the time period

Conditions
Light Rain
Cloud Levels
  • Broken at 8,000' AGL